Time;durP1;ratioP1;P1;durP2;ratioP2;P2;SDS_P1;SDS_P2;PMS_P1;PMS_P2;Temp;Humidity;BMP_temperature;BMP_pressure;BME280_temperature;BME280_humidity;BME280_pressure;Samples;Min_cycle;Max_cycle;Signal;HPM_P1;HPM_P2
2023/04/07 00:00:05;;;;;;;0.10;0.10;;;;;;;;;;6220807;23;20004;-90
2023/04/07 00:02:31;;;;;;;0.10;0.10;;;;;;;;;;6221341;23;20051;-92
2023/04/07 00:04:58;;;;;;;0.10;0.10;;;;;;;;;;6221689;23;20014;-91
2023/04/07 00:07:23;;;;;;;0.10;0.10;;;;;;;;;;6221139;23;20421;-91
2023/04/07 00:09:50;;;;;;;0.10;0.10;;;;;;;;;;6220901;23;20056;-91
2023/04/07 00:12:16;;;;;;;0.10;0.10;;;;;;;;;;6221130;23;20429;-90
2023/04/07 00:14:42;;;;;;;0.10;0.10;;;;;;;;;;6221433;23;20004;-91
2023/04/07 00:17:08;;;;;;;0.10;0.10;;;;;;;;;;6222713;23;20014;-91
2023/04/07 00:19:34;;;;;;;0.10;0.10;;;;;;;;;;6222465;23;20018;-92
2023/04/07 00:22:00;;;;;;;0.10;0.10;;;;;;;;;;6222989;23;20004;-91
2023/04/07 00:24:26;;;;;;;0.10;0.10;;;;;;;;;;6223233;23;20459;-91
2023/04/07 00:26:52;;;;;;;0.10;0.10;;;;;;;;;;6222889;23;20012;-91
2023/04/07 00:29:18;;;;;;;0.10;0.10;;;;;;;;;;6221146;23;20093;-91
2023/04/07 00:31:44;;;;;;;0.10;0.10;;;;;;;;;;6221106;23;20388;-91
2023/04/07 00:34:11;;;;;;;0.10;0.10;;;;;;;;;;6222163;23;20275;-91
2023/04/07 00:36:37;;;;;;;0.00;0.00;;;;;;;;;;6220829;23;20002;-92
2023/04/07 00:39:02;;;;;;;0.10;0.10;;;;;;;;;;6221080;22;20031;-92
2023/04/07 00:41:28;;;;;;;0.00;0.00;;;;;;;;;;6221375;23;20005;-91
2023/04/07 00:43:54;;;;;;;0.10;0.10;;;;;;;;;;6220558;23;19996;-91
2023/04/07 00:46:23;;;;;;;0.10;0.10;;;9.20;99.90;;;;;;6221223;23;20079;-92
2023/04/07 00:48:49;;;;;;;0.10;0.10;;;;;;;;;;6190777;23;20036;-91
2023/04/07 00:51:15;;;;;;;0.10;0.10;;;;;;;;;;6190882;23;20000;-91
2023/04/07 00:53:41;;;;;;;0.10;0.10;;;;;;;;;;6190357;23;20007;-92
2023/04/07 00:56:07;;;;;;;0.10;0.10;;;;;;;;;;6191624;23;20001;-92
2023/04/07 00:58:33;;;;;;;0.10;0.10;;;;;;;;;;6192977;23;20008;-91
2023/04/07 01:01:25;;;;;;;0.10;0.10;;;9.10;99.90;;;;;;6197405;23;20062;-91
2023/04/07 01:04:03;;;;;;;0.10;0.10;;;9.10;99.90;;;;;;6191151;23;20028;-91
2023/04/07 01:06:36;;;;;;;0.10;0.10;;;9.10;99.90;;;;;;6190380;23;20011;-92
2023/04/07 01:09:06;;;;;;;0.10;0.10;;;9.20;99.90;;;;;;6190366;23;20036;-91
2023/04/07 01:11:41;;;;;;;0.10;0.10;;;9.00;99.90;;;;;;6190520;23;20421;-90
2023/04/07 01:14:10;;;;;;;0.00;0.00;;;9.00;99.90;;;;;;6190517;23;20151;-91
2023/04/07 01:16:57;;;;;;;0.03;0.03;;;9.00;99.90;;;;;;6189944;23;20479;-91
2023/04/07 01:19:42;;;;;;;0.10;0.10;;;9.00;99.90;;;;;;6216858;23;20008;-91
2023/04/07 01:22:24;;;;;;;0.10;0.10;;;9.00;99.90;;;;;;6190104;23;20004;-91
2023/04/07 01:25:05;;;;;;;0.10;0.10;;;9.00;99.90;;;;;;6190131;23;19997;-92
2023/04/07 01:27:31;;;;;;;0.10;0.10;;;;;;;;;;6191169;23;20008;-91
2023/04/07 01:30:02;;;;;;;0.10;0.10;;;8.60;99.90;;;;;;6190706;23;20008;-91
2023/04/07 01:32:29;;;;;;;0.10;0.10;;;9.00;99.90;;;;;;6190517;23;20062;-92
2023/04/07 01:34:56;;;;;;;0.10;0.10;;;9.10;99.90;;;;;;6188983;23;20452;-92
2023/04/07 01:37:24;;;;;;;0.10;0.10;;;9.10;99.90;;;;;;6190143;23;20515;-91
2023/04/07 01:39:50;;;;;;;0.10;0.10;;;;;;;;;;6189178;23;20353;-92
2023/04/07 01:42:17;;;;;;;0.10;0.10;;;9.00;99.90;;;;;;6189038;23;20011;-91
2023/04/07 01:44:44;;;;;;;0.10;0.10;;;8.90;99.90;;;;;;6164926;23;20017;-91
2023/04/07 01:47:11;;;;;;;0.10;0.10;;;9.00;99.90;;;;;;6189365;23;20032;-91
2023/04/07 01:49:37;;;;;;;0.10;0.10;;;8.90;99.90;;;;;;6189977;23;20015;-91
2023/04/07 01:52:04;;;;;;;0.10;0.10;;;8.90;99.90;;;;;;6190199;23;20349;-91
2023/04/07 01:54:31;;;;;;;0.10;0.10;;;;;;;;;;6190711;23;20445;-90
2023/04/07 01:56:57;;;;;;;0.10;0.10;;;;;;;;;;6189875;23;20008;-91
2023/04/07 01:59:23;;;;;;;0.10;0.10;;;;;;;;;;6188685;23;20471;-91
2023/04/07 02:01:49;;;;;;;0.10;0.10;;;;;;;;;;6189908;23;20008;-91
2023/04/07 02:04:22;;;;;;;0.10;0.10;;;8.70;99.90;;;;;;6190380;23;20004;-91
2023/04/07 02:06:53;;;;;;;0.10;0.10;;;8.70;99.90;;;;;;6190358;23;20433;-91
2023/04/07 02:09:21;;;;;;;0.10;0.10;;;8.70;99.90;;;;;;6190275;23;20000;-91
2023/04/07 02:11:48;;;;;;;0.10;0.10;;;8.60;99.90;;;;;;6199635;23;20001;-91
2023/04/07 02:14:16;;;;;;;0.10;0.10;;;;;;;;;;6205080;23;20008;-91
2023/04/07 02:16:43;;;;;;;0.10;0.10;;;8.50;99.90;;;;;;6205445;23;20007;-90
2023/04/07 02:19:09;;;;;;;0.10;0.10;;;;;;;;;;6200707;23;20601;-92
2023/04/07 02:21:35;;;;;;;0.10;0.10;;;;;;;;;;6189867;23;20092;-91
2023/04/07 02:24:05;;;;;;;0.10;0.10;;;8.40;99.90;;;;;;6190903;23;20078;-91
2023/04/07 02:26:35;;;;;;;0.10;0.10;;;8.40;99.90;;;;;;6189817;23;20004;-91
2023/04/07 02:29:01;;;;;;;0.10;0.10;;;;;;;;;;6189644;23;20525;-91
2023/04/07 02:31:26;;;;;;;0.10;0.10;;;;;;;;;;6189688;23;20001;-91
2023/04/07 02:33:53;;;;;;;0.10;0.10;;;;;;;;;;6189612;23;20502;-90
2023/04/07 02:36:19;;;;;;;0.10;0.10;;;;;;;;;;6189620;23;20087;-91
2023/04/07 02:38:44;;;;;;;0.10;0.10;;;;;;;;;;6189692;23;20094;-92
2023/04/07 02:41:10;;;;;;;0.10;0.10;;;;;;;;;;6189573;23;20092;-93
2023/04/07 02:43:36;;;;;;;0.10;0.10;;;;;;;;;;6189852;23;20008;-90
2023/04/07 02:46:02;;;;;;;0.10;0.10;;;;;;;;;;6189516;23;20287;-91
2023/04/07 02:48:28;;;;;;;0.10;0.10;;;;;;;;;;6189606;23;20416;-91
2023/04/07 02:50:54;;;;;;;0.10;0.10;;;;;;;;;;6189933;23;20000;-91
2023/04/07 02:53:20;;;;;;;0.10;0.10;;;;;;;;;;6189452;23;20005;-92
2023/04/07 02:55:46;;;;;;;0.10;0.10;;;;;;;;;;6190265;23;20008;-91
2023/04/07 02:58:12;;;;;;;0.10;0.10;;;;;;;;;;6189813;23;20039;-91
2023/04/07 03:00:38;;;;;;;0.10;0.10;;;;;;;;;;6190022;23;20012;-91
2023/04/07 03:03:05;;;;;;;0.10;0.10;;;;;;;;;;6190665;23;20443;-92
2023/04/07 03:05:31;;;;;;;0.10;0.10;;;;;;;;;;6189831;23;20008;-91
2023/04/07 03:07:57;;;;;;;0.10;0.10;;;;;;;;;;6189878;23;20009;-92
2023/04/07 03:10:23;;;;;;;0.10;0.10;;;;;;;;;;6189666;23;20012;-91
2023/04/07 03:12:49;;;;;;;0.00;0.00;;;;;;;;;;6190242;23;20011;-90
2023/04/07 03:15:15;;;;;;;0.10;0.10;;;;;;;;;;6189108;23;20051;-91
2023/04/07 03:17:41;;;;;;;0.10;0.10;;;;;;;;;;6191324;23;20031;-91
2023/04/07 03:20:07;;;;;;;0.00;0.00;;;;;;;;;;6218417;23;20008;-91
2023/04/07 03:22:33;;;;;;;0.10;0.10;;;;;;;;;;6191231;23;20005;-91
2023/04/07 03:24:59;;;;;;;0.10;0.10;;;;;;;;;;6191185;23;20047;-90
2023/04/07 03:27:25;;;;;;;0.10;0.10;;;;;;;;;;6190724;23;20004;-91
2023/04/07 03:29:51;;;;;;;0.10;0.10;;;;;;;;;;6190365;23;20001;-90
2023/04/07 03:32:17;;;;;;;0.10;0.10;;;;;;;;;;6189969;23;20005;-92
2023/04/07 03:34:43;;;;;;;0.10;0.10;;;;;;;;;;6191233;23;20033;-91
2023/04/07 03:37:09;;;;;;;0.10;0.10;;;;;;;;;;6190304;23;20430;-91
2023/04/07 03:39:36;;;;;;;0.10;0.10;;;;;;;;;;6189016;23;20087;-91
2023/04/07 03:42:02;;;;;;;0.10;0.10;;;;;;;;;;6189575;23;20467;-91
2023/04/07 03:44:28;;;;;;;0.10;0.10;;;;;;;;;;6191637;23;20001;-92
2023/04/07 03:46:54;;;;;;;0.10;0.10;;;;;;;;;;6189538;23;20015;-91
2023/04/07 03:49:21;;;;;;;0.10;0.10;;;;;;;;;;6190235;23;20465;-93
2023/04/07 03:51:47;;;;;;;0.00;0.00;;;;;;;;;;6190545;23;20043;-91
2023/04/07 03:54:13;;;;;;;0.10;0.10;;;;;;;;;;6189942;23;20438;-90
2023/04/07 03:56:39;;;;;;;0.10;0.10;;;;;;;;;;6190435;23;19997;-91
2023/04/07 03:59:05;;;;;;;0.10;0.10;;;;;;;;;;6190043;23;20015;-91
2023/04/07 04:01:31;;;;;;;0.10;0.10;;;;;;;;;;6190127;23;20015;-91
2023/04/07 04:03:57;;;;;;;0.10;0.10;;;;;;;;;;6190316;23;20031;-91
2023/04/07 04:06:23;;;;;;;0.10;0.10;;;;;;;;;;6191380;23;20013;-91
2023/04/07 04:08:49;;;;;;;0.10;0.10;;;;;;;;;;6190530;23;20434;-92
2023/04/07 04:11:15;;;;;;;0.10;0.10;;;;;;;;;;6191061;23;20392;-91
2023/04/07 04:13:41;;;;;;;0.08;0.08;;;;;;;;;;6191141;23;20001;-92
2023/04/07 04:16:07;;;;;;;0.10;0.10;;;;;;;;;;6190539;23;20058;-91
2023/04/07 04:18:33;;;;;;;0.10;0.10;;;;;;;;;;6190556;23;20433;-92
2023/04/07 04:20:59;;;;;;;0.10;0.10;;;;;;;;;;6190269;23;20013;-91
2023/04/07 04:23:25;;;;;;;0.10;0.10;;;;;;;;;;6190376;23;20005;-91
2023/04/07 04:25:51;;;;;;;0.10;0.10;;;;;;;;;;6190574;23;20069;-91
2023/04/07 04:28:17;;;;;;;0.10;0.10;;;;;;;;;;6191267;23;20425;-91
2023/04/07 04:30:43;;;;;;;0.10;0.10;;;;;;;;;;6189978;23;20036;-91
2023/04/07 04:33:09;;;;;;;0.10;0.10;;;;;;;;;;6190381;23;20008;-91
2023/04/07 04:35:35;;;;;;;0.10;0.10;;;;;;;;;;6189903;23;20023;-91
2023/04/07 04:38:01;;;;;;;0.10;0.10;;;;;;;;;;6190021;23;20087;-91
2023/04/07 04:40:27;;;;;;;0.10;0.10;;;;;;;;;;6188705;23;20426;-91
2023/04/07 04:42:53;;;;;;;0.10;0.10;;;;;;;;;;6189976;23;20012;-92
2023/04/07 04:45:19;;;;;;;0.10;0.10;;;;;;;;;;6189664;23;20051;-91
2023/04/07 04:47:45;;;;;;;0.10;0.10;;;;;;;;;;6189755;23;20556;-90
2023/04/07 04:50:11;;;;;;;0.10;0.10;;;;;;;;;;6190566;23;20000;-91
2023/04/07 04:52:38;;;;;;;0.10;0.10;;;;;;;;;;6190021;23;20088;-91
2023/04/07 04:55:04;;;;;;;0.10;0.10;;;;;;;;;;6189840;23;20005;-91
2023/04/07 04:57:30;;;;;;;0.10;0.10;;;;;;;;;;6190059;23;20438;-91
2023/04/07 04:59:56;;;;;;;0.10;0.10;;;;;;;;;;6189913;23;20031;-91
2023/04/07 05:02:22;;;;;;;0.10;0.10;;;;;;;;;;6188582;23;20000;-91
2023/04/07 05:04:48;;;;;;;0.10;0.10;;;;;;;;;;6188926;23;20004;-92
2023/04/07 05:07:14;;;;;;;0.10;0.10;;;;;;;;;;6191185;23;20036;-91
2023/04/07 05:09:40;;;;;;;0.00;0.00;;;;;;;;;;6188227;23;20005;-91
2023/04/07 05:12:06;;;;;;;0.10;0.10;;;;;;;;;;6190118;23;20001;-91
2023/04/07 05:14:32;;;;;;;0.10;0.10;;;;;;;;;;6190132;23;20100;-91
2023/04/07 05:16:59;;;;;;;0.10;0.10;;;;;;;;;;6189936;23;19997;-91
2023/04/07 05:19:26;;;;;;;0.10;0.10;;;;;;;;;;6189718;23;20083;-91
2023/04/07 05:21:52;;;;;;;0.10;0.10;;;;;;;;;;6190465;23;20275;-92
2023/04/07 05:24:18;;;;;;;0.10;0.10;;;;;;;;;;6189304;23;20000;-91
2023/04/07 05:26:44;;;;;;;0.10;0.10;;;;;;;;;;6190633;23;20056;-92
2023/04/07 05:29:10;;;;;;;0.10;0.10;;;;;;;;;;6189422;23;20005;-92
2023/04/07 05:31:36;;;;;;;0.10;0.10;;;;;;;;;;6189097;23;20342;-91
2023/04/07 05:34:02;;;;;;;0.10;0.10;;;;;;;;;;6188677;23;20051;-92
2023/04/07 05:36:28;;;;;;;0.10;0.10;;;;;;;;;;6189672;23;20437;-91
2023/04/07 05:38:54;;;;;;;0.10;0.10;;;;;;;;;;6188663;23;20028;-89
2023/04/07 05:41:20;;;;;;;0.10;0.10;;;;;;;;;;6189017;23;20059;-90
2023/04/07 05:43:46;;;;;;;0.10;0.10;;;;;;;;;;6189786;23;20019;-89
2023/04/07 05:46:12;;;;;;;0.10;0.10;;;;;;;;;;6188305;23;20005;-89
2023/04/07 05:48:38;;;;;;;0.10;0.10;;;;;;;;;;6189617;23;20007;-90
2023/04/07 05:51:04;;;;;;;0.10;0.10;;;;;;;;;;6189043;23;20091;-92
2023/04/07 05:53:30;;;;;;;0.10;0.10;;;;;;;;;;6188655;23;20005;-91
2023/04/07 05:55:56;;;;;;;0.10;0.10;;;;;;;;;;6189539;23;20001;-91
2023/04/07 05:58:22;;;;;;;0.10;0.10;;;;;;;;;;6188723;23;20016;-90
2023/04/07 06:00:48;;;;;;;0.10;0.10;;;;;;;;;;6188744;23;20008;-91
2023/04/07 06:03:14;;;;;;;0.10;0.10;;;;;;;;;;6189888;23;20058;-91
2023/04/07 06:05:42;;;;;;;0.10;0.10;;;;;;;;;;6189425;23;20011;-91
2023/04/07 06:08:09;;;;;;;0.10;0.10;;;7.70;99.90;;;;;;6189852;23;20005;-91
2023/04/07 06:10:35;;;;;;;0.10;0.10;;;;;;;;;;6189949;23;20032;-90
2023/04/07 06:13:01;;;;;;;0.10;0.10;;;;;;;;;;6190544;23;20004;-90
2023/04/07 06:15:27;;;;;;;0.10;0.10;;;;;;;;;;6189639;23;19996;-92
2023/04/07 06:17:53;;;;;;;0.10;0.10;;;;;;;;;;6195389;23;20086;-92
2023/04/07 06:20:21;;;;;;;0.10;0.10;;;;;;;;;;6188995;23;20012;-91
2023/04/07 06:22:49;;;;;;;0.10;0.10;;;;;;;;;;6191599;23;20027;-91
2023/04/07 06:25:15;;;;;;;0.10;0.10;;;;;;;;;;6193486;23;20445;-91
2023/04/07 06:27:41;;;;;;;0.10;0.10;;;;;;;;;;6193114;23;20005;-91
2023/04/07 06:30:07;;;;;;;0.10;0.10;;;;;;;;;;6189961;23;20005;-91
2023/04/07 06:32:33;;;;;;;0.10;0.10;;;;;;;;;;6187135;23;20060;-91
2023/04/07 06:34:59;;;;;;;0.10;0.10;;;;;;;;;;6188588;23;20020;-91
2023/04/07 06:37:25;;;;;;;0.10;0.10;;;;;;;;;;6189213;23;20032;-91
2023/04/07 06:39:51;;;;;;;0.10;0.10;;;;;;;;;;6189460;23;20005;-90
2023/04/07 06:42:17;;;;;;;0.10;0.10;;;;;;;;;;6190030;23;20001;-91
2023/04/07 06:44:43;;;;;;;0.10;0.10;;;;;;;;;;6187875;23;20399;-91
2023/04/07 06:47:10;;;;;;;0.00;0.00;;;;;;;;;;6191569;23;20100;-90
2023/04/07 06:49:36;;;;;;;0.08;0.08;;;;;;;;;;6189380;23;20001;-91
2023/04/07 06:52:02;;;;;;;0.10;0.10;;;;;;;;;;6190149;23;20079;-91
2023/04/07 06:54:28;;;;;;;0.00;0.00;;;;;;;;;;6192167;23;20008;-90
2023/04/07 06:56:55;;;;;;;0.00;0.00;;;;;;;;;;6191566;23;20507;-91
2023/04/07 06:59:22;;;;;;;0.10;0.10;;;;;;;;;;6191792;23;19997;-90
2023/04/07 07:01:48;;;;;;;0.10;0.10;;;;;;;;;;6191282;23;20028;-90
2023/04/07 07:04:14;;;;;;;0.00;0.00;;;;;;;;;;6192320;23;20015;-91
2023/04/07 07:06:40;;;;;;;0.10;0.10;;;;;;;;;;6192681;23;20008;-90
2023/04/07 07:09:06;;;;;;;0.10;0.10;;;;;;;;;;6191183;23;20009;-91
2023/04/07 07:11:32;;;;;;;0.10;0.10;;;;;;;;;;6199223;23;20008;-90
2023/04/07 07:13:58;;;;;;;0.10;0.10;;;;;;;;;;6192363;23;20028;-89
2023/04/07 07:16:24;;;;;;;0.10;0.10;;;;;;;;;;6188139;23;20016;-90
2023/04/07 07:18:50;;;;;;;0.00;0.00;;;;;;;;;;6191666;23;20000;-90
2023/04/07 07:21:17;;;;;;;0.10;0.10;;;10.90;99.90;;;;;;6191044;23;20468;-90
2023/04/07 07:23:43;;;;;;;0.03;0.03;;;;;;;;;;6191933;23;20220;-91
2023/04/07 07:26:09;;;;;;;0.10;0.10;;;;;;;;;;6192587;23;20433;-90
2023/04/07 07:28:35;;;;;;;0.10;0.10;;;;;;;;;;6192765;23;20011;-91
2023/04/07 07:31:11;;;;;;;0.00;0.00;;;11.70;99.90;;;;;;6210434;23;20001;-92
2023/04/07 07:33:39;;;;;;;0.00;0.00;;;;;;;;;;6214983;23;20023;-91
2023/04/07 07:36:05;;;;;;;0.00;0.00;;;;;;;;;;6214436;23;20005;-91
2023/04/07 07:38:31;;;;;;;0.00;0.00;;;;;;;;;;6204844;23;20046;-91
2023/04/07 07:40:57;;;;;;;0.00;0.00;;;;;;;;;;6194119;23;20028;-91
2023/04/07 07:43:23;;;;;;;0.03;0.03;;;;;;;;;;6192827;23;20031;-91
2023/04/07 07:45:49;;;;;;;0.00;0.00;;;;;;;;;;6193187;23;20001;-92
2023/04/07 07:48:15;;;;;;;0.10;0.10;;;;;;;;;;6191896;23;20058;-91
2023/04/07 07:50:42;;;;;;;0.10;0.10;;;;;;;;;;6192717;23;20000;-91
2023/04/07 07:53:08;;;;;;;0.00;0.00;;;;;;;;;;6192464;23;20001;-91
2023/04/07 07:55:34;;;;;;;0.00;0.00;;;;;;;;;;6193239;23;20043;-90
2023/04/07 07:58:00;;;;;;;0.00;0.00;;;;;;;;;;6193022;23;20035;-91
2023/04/07 08:00:26;;;;;;;0.00;0.00;;;;;;;;;;6192857;23;20008;-91
2023/04/07 08:02:52;;;;;;;0.00;0.00;;;;;;;;;;6193139;23;20009;-91
2023/04/07 08:05:18;;;;;;;0.00;0.00;;;;;;;;;;6192079;23;20440;-91
2023/04/07 08:07:45;;;;;;;0.00;0.00;;;;;;;;;;6192447;23;20309;-91
2023/04/07 08:10:11;;;;;;;0.05;0.05;;;;;;;;;;6192324;23;20024;-92
2023/04/07 08:12:38;;;;;;;0.10;0.10;;;;;;;;;;6192763;23;20008;-90
2023/04/07 08:15:05;;;;;;;0.10;0.10;;;;;;;;;;6193082;23;20508;-90
2023/04/07 08:17:31;;;;;;;0.00;0.00;;;;;;;;;;6194045;23;20437;-90
2023/04/07 08:19:56;;;;;;;0.00;0.00;;;;;;;;;;6192813;23;20023;-91
2023/04/07 08:22:22;;;;;;;0.00;0.00;;;;;;;;;;6192983;23;20005;-90
2023/04/07 08:24:48;;;;;;;0.00;0.00;;;;;;;;;;6194166;23;20005;-91
2023/04/07 08:27:14;;;;;;;0.00;0.00;;;;;;;;;;6192200;23;20024;-90
2023/04/07 08:29:40;;;;;;;0.10;0.10;;;;;;;;;;6192593;23;19996;-91
2023/04/07 08:32:06;;;;;;;0.00;0.00;;;;;;;;;;6192066;23;20035;-90
2023/04/07 08:34:32;;;;;;;0.00;0.00;;;;;;;;;;6192210;23;20004;-91
2023/04/07 08:36:58;;;;;;;0.00;0.00;;;;;;;;;;6192156;23;20000;-91
2023/04/07 08:39:24;;;;;;;0.00;0.00;;;;;;;;;;6191790;23;20039;-90
2023/04/07 08:41:51;;;;;;;0.10;0.10;;;;;;;;;;6189304;23;19997;-91
2023/04/07 08:44:20;;;;;;;0.00;0.00;;;11.10;98.10;;;;;;6190742;23;20011;-90
2023/04/07 08:46:46;;;;;;;0.00;0.00;;;11.20;97.90;;;;;;6189575;23;20008;-90
2023/04/07 08:49:13;;;;;;;0.10;0.10;;;;;;;;;;6190219;23;20031;-91
2023/04/07 08:51:46;;;;;;;0.00;0.00;;;11.10;98.20;;;;;;6190723;23;20011;-91
2023/04/07 08:54:17;;;;;;;0.00;0.00;;;11.00;98.50;;;;;;6191018;23;20081;-92
2023/04/07 08:56:44;;;;;;;0.03;0.03;;;11.00;99.00;;;;;;6190136;23;20001;-91
2023/04/07 08:59:12;;;;;;;0.10;0.10;;;11.20;97.80;;;;;;6191152;23;20008;-90
2023/04/07 09:01:38;;;;;;;0.00;0.00;;;11.10;97.30;;;;;;6191616;23;20012;-91
2023/04/07 09:04:08;;;;;;;0.10;0.10;;;11.20;97.10;;;;;;6191285;23;20020;-90
2023/04/07 09:06:34;;;;;;;;;;;10.10;96.90;;;;;;6191680;23;20529;-91
2023/04/07 09:09:01;;;;;;;0.03;0.03;;;;;;;;;;6191123;23;19927;-91
2023/04/07 09:11:27;;;;;;;0.10;0.10;;;11.20;96.60;;;;;;6190003;23;20036;-92
2023/04/07 09:13:54;;;;;;;0.10;0.10;;;11.40;96.10;;;;;;6191558;23;20087;-91
2023/04/07 09:16:20;;;;;;;0.00;0.00;;;;;;;;;;6190799;23;20007;-90
2023/04/07 09:18:46;;;;;;;0.00;0.00;;;;;;;;;;6191241;23;20008;-91
2023/04/07 09:21:12;;;;;;;0.00;0.00;;;;;;;;;;6191796;23;20072;-91
2023/04/07 09:23:39;;;;;;;0.00;0.00;;;11.50;95.90;;;;;;6189416;23;20354;-90
2023/04/07 09:26:23;;;;;;;0.10;0.10;;;11.50;95.80;;;;;;6192002;23;20341;-91
2023/04/07 09:28:58;;;;;;;0.00;0.00;;;11.50;94.60;;;;;;6217573;23;20072;-90
2023/04/07 09:31:50;;;;;;;0.10;0.10;;;11.50;95.80;;;;;;6190714;23;20437;-90
2023/04/07 09:34:31;;;;;;;0.00;0.00;;;11.50;95.00;;;;;;6190595;23;20008;-91
2023/04/07 09:36:57;;;;;;;0.00;0.00;;;;;;;;;;6191428;23;20009;-91
2023/04/07 09:39:23;;;;;;;0.00;0.00;;;;;;;;;;6190596;23;20001;-91
2023/04/07 09:41:50;;;;;;;0.00;0.00;;;;;;;;;;6190602;23;20000;-91
2023/04/07 09:44:16;;;;;;;0.00;0.00;;;;;;;;;;6190500;23;20158;-90
2023/04/07 09:46:55;;;;;;;0.00;0.00;;;11.70;93.40;;;;;;6190880;23;20008;-91
2023/04/07 09:49:21;;;;;;;0.00;0.00;;;;;;;;;;6215779;23;20000;-91
2023/04/07 09:52:03;;;;;;;0.10;0.10;;;11.80;93.70;;;;;;6190564;23;20008;-91
2023/04/07 09:54:40;;;;;;;0.00;0.00;;;11.70;94.50;;;;;;6190717;23;20000;-91
2023/04/07 09:57:08;;;;;;;0.00;0.00;;;11.80;94.60;;;;;;6190445;23;19997;-91
2023/04/07 09:59:38;;;;;;;0.00;0.00;;;11.80;95.40;;;;;;6190041;23;20087;-91
2023/04/07 10:02:04;;;;;;;0.00;0.00;;;;;;;;;;6190246;23;20005;-91
2023/04/07 10:04:31;;;;;;;0.00;0.00;;;;;;;;;;6191320;23;20001;-91
2023/04/07 10:06:57;;;;;;;0.00;0.00;;;12.00;93.80;;;;;;6191272;23;20464;-91
2023/04/07 10:09:27;;;;;;;0.00;0.00;;;12.10;92.60;;;;;;6191027;23;20009;-90
2023/04/07 10:11:56;;;;;;;0.10;0.10;;;12.10;92.60;;;;;;6190864;23;20005;-91
2023/04/07 10:14:26;;;;;;;0.00;0.00;;;12.10;94.50;;;;;;6191506;23;20009;-91
2023/04/07 10:16:53;;;;;;;0.00;0.00;;;;;;;;;;6191944;23;19997;-90
2023/04/07 10:19:19;;;;;;;0.00;0.00;;;;;;;;;;6191183;23;20009;-90
2023/04/07 10:21:45;;;;;;;0.00;0.00;;;;;;;;;;6191520;23;20008;-90
2023/04/07 10:24:46;;;;;;;0.00;0.00;;;12.10;94.90;;;;;;6191654;23;20001;-91
2023/04/07 10:27:16;;;;;;;0.10;0.10;;;12.30;94.50;;;;;;6190427;23;20001;-91
2023/04/07 10:29:46;;;;;;;0.10;0.10;;;12.40;92.30;;;;;;6191191;23;20027;-90
2023/04/07 10:32:12;;;;;;;0.00;0.00;;;;;;;;;;6190246;23;20007;-91
2023/04/07 10:34:47;;;;;;;0.00;0.00;;;12.40;93.10;;;;;;6190349;23;20005;-91
2023/04/07 10:37:16;;;;;;;0.10;0.10;;;12.40;93.60;;;;;;6190675;23;20084;-91
2023/04/07 10:39:42;;;;;;;0.10;0.10;;;;;;;;;;6191307;23;20001;-91
2023/04/07 10:42:37;;;;;;;0.00;0.00;;;12.40;90.50;;;;;;6191536;23;19997;-91
2023/04/07 10:45:07;;;;;;;0.00;0.00;;;12.50;91.50;;;;;;6190795;23;20005;-90
2023/04/07 10:47:33;;;;;;;0.00;0.00;;;;;;;;;;6189743;23;20004;-91
2023/04/07 10:50:16;;;;;;;0.00;0.00;;;12.70;91.60;;;;;;6187222;23;20340;-92
2023/04/07 10:52:42;;;;;;;0.00;0.00;;;;;;;;;;6190466;23;20005;-90
2023/04/07 10:55:27;;;;;;;0.00;0.00;;;12.90;88.50;;;;;;6189756;23;20027;-90
2023/04/07 10:58:12;;;;;;;0.00;0.00;;;13.00;90.30;;;;;;6191110;23;20075;-91
2023/04/07 11:00:38;;;;;;;0.00;0.00;;;;;;;;;;6189718;23;20456;-91
2023/04/07 11:03:14;;;;;;;0.00;0.00;;;13.00;87.10;;;;;;6188674;23;20036;-91
2023/04/07 11:05:41;;;;;;;0.10;0.10;;;;;;;;;;6188730;23;20062;-91
2023/04/07 11:08:07;;;;;;;0.00;0.00;;;;;;;;;;6188766;23;20009;-90
2023/04/07 11:10:33;;;;;;;0.00;0.00;;;13.20;88.60;;;;;;6188680;23;20055;-91
2023/04/07 11:13:05;;;;;;;0.00;0.00;;;13.30;87.40;;;;;;6189398;23;20090;-90
2023/04/07 11:15:31;;;;;;;0.00;0.00;;;;;;;;;;6187526;23;20098;-92
2023/04/07 11:18:15;;;;;;;0.00;0.00;;;13.40;87.40;;;;;;6187778;23;20082;-90
2023/04/07 11:20:45;;;;;;;0.00;0.00;;;13.50;87.80;;;;;;6189280;23;20019;-90
2023/04/07 11:23:11;;;;;;;0.00;0.00;;;;;;;;;;6188467;23;20012;-91
2023/04/07 11:25:37;;;;;;;0.00;0.00;;;;;;;;;;6189229;23;20027;-90
2023/04/07 11:28:04;;;;;;;0.00;0.00;;;13.50;87.10;;;;;;6189131;23;20464;-90
2023/04/07 11:30:30;;;;;;;0.00;0.00;;;;;;;;;;6189930;23;20001;-91
2023/04/07 11:32:56;;;;;;;0.00;0.00;;;;;;;;;;6189344;23;20008;-90
2023/04/07 11:35:22;;;;;;;0.00;0.00;;;;;;;;;;6189292;23;20008;-89
2023/04/07 11:37:49;;;;;;;0.00;0.00;;;;;;;;;;6187963;23;20015;-90
2023/04/07 11:40:33;;;;;;;0.00;0.00;;;13.30;83.50;;;;;;6189755;23;20440;-90
2023/04/07 11:42:59;;;;;;;0.00;0.00;;;;;;;;;;6189160;23;20084;-90
2023/04/07 11:45:25;;;;;;;0.00;0.00;;;;;;;;;;6189782;23;20008;-90
2023/04/07 11:47:51;;;;;;;0.00;0.00;;;;;;;;;;6189594;23;20008;-90
2023/04/07 11:50:17;;;;;;;0.00;0.00;;;;;;;;;;6190171;23;20459;-90
2023/04/07 11:52:47;;;;;;;0.00;0.00;;;13.40;84.00;;;;;;6190471;23;20384;-89
2023/04/07 11:55:25;;;;;;;0.00;0.00;;;13.50;82.70;;;;;;6189414;23;20005;-90
2023/04/07 11:57:52;;;;;;;0.00;0.00;;;;;;;;;;6190233;23;20024;-90
2023/04/07 12:00:19;;;;;;;0.00;0.00;;;13.20;82.70;;;;;;6188850;23;20452;-90
2023/04/07 12:02:45;;;;;;;0.00;0.00;;;;;;;;;;6190148;23;20087;-91
2023/04/07 12:05:11;;;;;;;0.00;0.00;;;;;;;;;;6190336;23;20011;-90
2023/04/07 12:07:38;;;;;;;0.00;0.00;;;;;;;;;;6189482;23;20024;-89
2023/04/07 12:10:20;;;;;;;0.00;0.00;;;13.70;81.90;;;;;;6190185;23;20009;-90
2023/04/07 12:12:46;;;;;;;0.00;0.00;;;;;;;;;;6189974;23;20004;-90
2023/04/07 12:15:12;;;;;;;0.00;0.00;;;;;;;;;;6190024;23;20005;-91
2023/04/07 12:17:45;;;;;;;0.00;0.00;;;13.80;83.30;;;;;;6190106;23;20001;-90
2023/04/07 12:20:11;;;;;;;0.00;0.00;;;;;;;;;;6189012;23;20013;-90
2023/04/07 12:22:37;;;;;;;0.00;0.00;;;;;;;;;;6188640;23;20009;-91
2023/04/07 12:25:03;;;;;;;0.00;0.00;;;;;;;;;;6188695;23;20031;-90
2023/04/07 12:27:29;;;;;;;0.00;0.00;;;;;;;;;;6188083;23;20011;-91
2023/04/07 12:29:55;;;;;;;0.00;0.00;;;;;;;;;;6188788;23;20004;-91
2023/04/07 12:32:21;;;;;;;0.00;0.00;;;;;;;;;;6189215;23;20075;-90
2023/04/07 12:34:47;;;;;;;0.00;0.00;;;;;;;;;;6189626;23;20032;-90
2023/04/07 12:37:13;;;;;;;0.00;0.00;;;;;;;;;;6188281;23;20055;-90
2023/04/07 12:39:39;;;;;;;0.00;0.00;;;;;;;;;;6188728;23;20039;-90
2023/04/07 12:42:06;;;;;;;0.00;0.00;;;;;;;;;;6189576;23;20055;-91
2023/04/07 12:44:32;;;;;;;0.00;0.00;;;;;;;;;;6216119;23;20004;-91
2023/04/07 12:46:58;;;;;;;0.00;0.00;;;;;;;;;;6189838;23;20003;-90
2023/04/07 12:49:24;;;;;;;0.00;0.00;;;;;;;;;;6187817;23;20017;-90
2023/04/07 12:51:50;;;;;;;0.00;0.00;;;;;;;;;;6188796;23;20063;-90
2023/04/07 12:54:16;;;;;;;0.00;0.00;;;;;;;;;;6188611;23;20051;-91
2023/04/07 12:56:42;;;;;;;0.00;0.00;;;;;;;;;;6190870;23;20008;-92
2023/04/07 12:59:08;;;;;;;0.00;0.00;;;;;;;;;;6198028;23;20017;-91
2023/04/07 13:01:35;;;;;;;0.00;0.00;;;;;;;;;;6199388;23;20060;-90
2023/04/07 13:04:02;;;;;;;0.00;0.00;;;;;;;;;;6199744;23;20367;-90
2023/04/07 13:06:27;;;;;;;0.00;0.00;;;;;;;;;;6187735;23;20031;-92
2023/04/07 13:08:53;;;;;;;0.00;0.00;;;;;;;;;;6186995;23;20423;-91
2023/04/07 13:11:20;;;;;;;0.00;0.00;;;;;;;;;;6187336;23;20004;-91
2023/04/07 13:13:46;;;;;;;0.00;0.00;;;;;;;;;;6188148;23;20344;-90
2023/04/07 13:16:12;;;;;;;0.00;0.00;;;;;;;;;;6189295;23;20005;-90
2023/04/07 13:18:38;;;;;;;0.00;0.00;;;;;;;;;;6188647;23;20095;-90
2023/04/07 13:21:04;;;;;;;0.00;0.00;;;;;;;;;;6189224;23;20021;-90
2023/04/07 13:23:30;;;;;;;0.00;0.00;;;;;;;;;;6189121;23;20054;-90
2023/04/07 13:25:56;;;;;;;0.00;0.00;;;;;;;;;;6188490;23;20087;-90
2023/04/07 13:28:22;;;;;;;0.00;0.00;;;;;;;;;;6186423;23;20386;-90
2023/04/07 13:30:48;;;;;;;0.00;0.00;;;;;;;;;;6187347;23;20027;-90
2023/04/07 13:33:14;;;;;;;0.00;0.00;;;;;;;;;;6187018;23;20004;-91
2023/04/07 13:35:40;;;;;;;0.00;0.00;;;;;;;;;;6187517;23;20000;-90
2023/04/07 13:38:07;;;;;;;0.00;0.00;;;;;;;;;;6187443;23;20000;-90
2023/04/07 13:40:33;;;;;;;0.00;0.00;;;;;;;;;;6189076;23;20004;-90
2023/04/07 13:42:59;;;;;;;0.00;0.00;;;;;;;;;;6188914;23;20142;-90
2023/04/07 13:45:25;;;;;;;0.00;0.00;;;;;;;;;;6187559;23;20486;-89
2023/04/07 13:47:51;;;;;;;0.00;0.00;;;;;;;;;;6187657;23;20044;-91
2023/04/07 13:50:17;;;;;;;0.00;0.00;;;;;;;;;;6187229;23;20008;-92
2023/04/07 13:52:43;;;;;;;0.00;0.00;;;;;;;;;;6188684;23;20001;-91
2023/04/07 13:55:10;;;;;;;0.00;0.00;;;;;;;;;;6188575;23;20472;-91
2023/04/07 13:57:36;;;;;;;0.00;0.00;;;;;;;;;;6186836;23;20005;-91
2023/04/07 14:12:57;;;;;;;0.00;0.00;;;;;;;;;;6185009;23;20028;-91
2023/04/07 14:15:23;;;;;;;0.00;0.00;;;;;;;;;;6157713;23;20001;-92
2023/04/07 14:17:49;;;;;;;0.00;0.00;;;;;;;;;;6158814;23;20001;-92
2023/04/07 14:20:15;;;;;;;0.00;0.00;;;;;;;;;;6175654;23;20013;-90
2023/04/07 14:22:41;;;;;;;0.00;0.00;;;;;;;;;;6188999;23;20547;-90
2023/04/07 14:30:16;;;;;;;0.00;0.00;;;;;;;;;;6181873;23;20025;-92
2023/04/07 14:32:42;;;;;;;0.00;0.00;;;;;;;;;;6156401;23;20012;-92
2023/04/07 14:35:08;;;;;;;0.00;0.00;;;15.10;70.70;;;;;;6156164;23;20056;-91